Time;durP1;ratioP1;P1;durP2;ratioP2;P2;SDS_P1;SDS_P2;PMS_P1;PMS_P2;Temp;Humidity;BMP_temperature;BMP_pressure;BME280_temperature;BME280_humidity;BME280_pressure;Samples;Min_cycle;Max_cycle;Signal;HPM_P1;HPM_P2
2021/11/30 00:00:54;;;;;;;6.10;2.30;;;;;;;-149.78;100.00;50522.28;5031164;28;20030;-65
2021/11/30 00:03:19;;;;;;;3.25;2.00;;;;;;;-149.78;100.00;50473.41;5033544;28;20040;-65
2021/11/30 00:05:46;;;;;;;5.95;2.40;;;;;;;-149.78;100.00;50483.19;5032842;28;20026;-65
2021/11/30 00:08:16;;;;;;;5.20;2.25;;;;;;;-149.78;100.00;50504.69;5033213;28;20432;-65
2021/11/30 00:10:43;;;;;;;2.80;1.80;;;;;;;-149.78;100.00;50491.00;5030991;28;20152;-65
2021/11/30 00:13:09;;;;;;;5.35;2.55;;;;;;;-149.78;100.00;50475.34;5031174;28;20519;-65
2021/11/30 00:15:35;;;;;;;4.13;1.85;;;;;;;-149.78;100.00;50453.84;5029977;28;20049;-65
2021/11/30 00:18:00;;;;;;;2.38;1.35;;;;;;;-149.78;100.00;50463.63;5031881;28;20041;-65
2021/11/30 00:20:26;;;;;;;2.15;1.10;;;;;;;-149.78;100.00;50483.19;5034547;28;20040;-65
2021/11/30 00:22:51;;;;;;;2.22;1.25;;;;;;;-149.78;100.00;50498.81;5033150;28;20418;-65
2021/11/30 00:25:17;;;;;;;3.15;1.40;;;;;;;-149.78;100.00;50475.34;5031428;28;20025;-65
2021/11/30 00:27:42;;;;;;;4.95;1.10;;;;;;;-149.78;100.00;50483.19;5032387;28;20033;-65
2021/11/30 00:30:09;;;;;;;4.70;1.20;;;;;;;-149.78;100.00;50498.81;5028758;28;20033;-65
2021/11/30 00:32:34;;;;;;;1.42;1.00;;;;;;;-149.78;100.00;50483.19;5034544;28;20021;-65
2021/11/30 00:35:00;;;;;;;1.50;1.10;;;;;;;-149.78;100.00;50455.81;5033420;28;20049;-65
2021/11/30 00:37:25;;;;;;;3.55;1.10;;;;;;;-149.78;100.00;50514.47;5027470;28;20041;-65
2021/11/30 00:39:51;;;;;;;2.75;1.40;;;;;;;-149.78;100.00;50514.47;5025994;28;20369;-65
2021/11/30 00:42:20;;;;;;;2.28;1.20;;;;;;;-149.78;100.00;50520.34;5031478;28;20455;-65
2021/11/30 00:44:47;;;;;;;1.55;1.00;;;;;;;-149.78;100.00;50483.19;5030290;28;20109;-65
2021/11/30 00:47:18;;;;;;;2.40;1.10;;;;;;;-149.78;100.00;50483.19;5032906;28;20041;-65
2021/11/30 00:49:45;;;;;;;2.80;1.37;;;;;;;-149.78;100.00;50489.03;5026689;28;20144;-65
2021/11/30 00:52:14;;;;;;;3.05;1.30;;;;;;;-149.78;100.00;50475.34;5030615;28;20045;-65
2021/11/30 00:54:41;;;;;;;2.60;1.40;;;;;;;-149.78;100.00;50475.34;5032137;28;20382;-66
2021/11/30 00:57:08;;;;;;;1.83;1.27;;;;;;;-149.78;100.00;50506.66;5031375;28;20064;-65
2021/11/30 00:59:34;;;;;;;2.13;1.30;;;;;;;-149.78;100.00;50477.31;5031432;28;20056;-65
2021/11/30 01:02:00;;;;;;;2.78;1.42;;;;;;;-149.78;100.00;50463.63;5031123;28;20432;-65
2021/11/30 01:04:27;;;;;;;3.22;1.20;;;;;;;-149.78;100.00;50451.88;5032472;28;20561;-65
2021/11/30 01:06:53;;;;;;;3.35;1.20;;;;;;;-149.78;100.00;50477.31;5032263;28;20049;-65
2021/11/30 01:09:19;;;;;;;2.72;1.00;;;;;;;-149.78;100.00;50489.03;5029354;28;20431;-65
2021/11/30 01:11:45;;;;;;;2.40;1.08;;;;;;;-149.78;100.00;50494.91;5031655;28;20033;-65
2021/11/30 01:14:11;;;;;;;2.67;1.00;;;;;;;-149.78;100.00;50508.59;5031769;28;20484;-65
2021/11/30 01:16:36;;;;;;;1.60;1.10;;;;;;;-149.78;100.00;50455.81;5023496;28;20033;-65
2021/11/30 01:19:03;;;;;;;0.93;0.80;;;;;;;-149.78;100.00;50491.00;5034290;28;20037;-65
2021/11/30 01:21:29;;;;;;;2.20;1.25;;;;;;;-149.78;100.00;50487.09;5030052;28;20033;-65
2021/11/30 01:23:55;;;;;;;0.60;0.60;;;;;;;-149.78;100.00;50502.75;5031111;28;20029;-65
2021/11/30 01:26:20;;;;;;;3.60;1.17;;;;;;;-149.78;100.00;50498.81;5030477;28;20029;-65
2021/11/30 01:28:46;;;;;;;2.63;0.90;;;;;;;-149.78;100.00;50465.56;5031746;28;20473;-65
2021/11/30 01:31:12;;;;;;;1.02;0.82;;;;;;;-149.78;100.00;50461.66;5034994;28;20540;-65
2021/11/30 01:33:38;;;;;;;1.25;0.70;;;;;;;-149.78;100.00;50447.97;5026400;28;20468;-65
2021/11/30 01:36:05;;;;;;;0.63;0.60;;;;;;;-149.78;100.00;50469.50;5035511;28;20087;-65
2021/11/30 01:38:33;;;;;;;0.80;0.65;;;;;;;-149.78;100.00;50489.03;5032265;28;20037;-65
2021/11/30 01:41:01;;;;;;;1.05;0.60;;;;;;;-149.78;100.00;50453.84;5024533;28;20026;-65
2021/11/30 01:43:35;;;;;;;1.05;0.70;;;;;;;-149.78;100.00;50491.00;5021555;28;20409;-66
2021/11/30 01:51:22;;;;;;;0.50;0.40;;;;;;;-149.78;100.00;50494.91;5023102;28;20122;-65
2021/11/30 01:53:49;;;;;;;0.47;0.47;;;;;;;-149.78;100.00;50498.81;5022767;28;20479;-65
2021/11/30 01:56:14;;;;;;;0.30;0.30;;;;;;;-149.78;100.00;50471.44;5025021;28;20125;-68
2021/11/30 01:58:42;;;;;;;0.35;0.35;;;;;;;-149.78;100.00;50483.19;5028768;28;20076;-68
2021/11/30 02:01:08;;;;;;;0.40;0.40;;;;;;;-149.78;100.00;50457.75;5023643;28;20029;-68
2021/11/30 02:03:35;;;;;;;0.20;0.20;;;;;;;-149.78;100.00;50479.28;5037047;28;20498;-68
2021/11/30 02:06:00;;;;;;;0.30;0.30;;;;;;;-149.78;100.00;50502.75;5028868;28;20080;-68
2021/11/30 02:08:26;;;;;;;0.70;0.70;;;;;;;-149.78;100.00;50494.91;5040976;28;20477;-68
2021/11/30 02:10:56;;;;;;;0.30;0.28;;;;;;;-149.78;100.00;50459.72;5035030;28;20400;-68
2021/11/30 02:13:22;;;;;;;0.40;0.40;;;;;;;-149.78;100.00;50449.94;5034166;28;20045;-68
2021/11/30 02:15:51;;;;;;;0.20;0.20;;;;;;;-149.78;100.00;50463.63;5033361;28;20029;-68
2021/11/30 02:18:24;;;;;;;0.30;0.30;;;;;;;-149.78;100.00;50463.63;5032791;28;20510;-68
2021/11/30 02:20:56;;;;;;;;;;;;;;;-149.78;100.00;50481.22;5032976;28;20037;-68
2021/11/30 02:23:57;;;;;;;0.57;0.38;;;;;;;-149.78;100.00;50473.41;5027108;28;19917;-68
2021/11/30 02:26:16;;;;;;;0.20;0.20;;;;;;;-149.78;100.00;50487.09;5021658;28;20056;-68
2021/11/30 02:28:45;;;;;;;0.20;0.20;;;;;;;-149.78;100.00;50463.63;5035042;28;20038;-68
2021/11/30 02:31:15;;;;;;;0.20;0.20;;;;;;;-149.78;100.00;50467.53;5033499;28;20037;-68
2021/11/30 02:33:41;;;;;;;0.10;0.10;;;;;;;-149.78;100.00;50463.63;5033568;28;20046;-68
2021/11/30 02:36:28;;;;;;;0.17;0.17;;;;;;;-149.78;100.00;50465.56;5033159;28;20033;-68
2021/11/30 02:38:55;;;;;;;0.30;0.30;;;;;;;-149.78;100.00;50440.16;5028265;28;20034;-68
2021/11/30 02:41:22;;;;;;;0.40;0.28;;;;;;;-149.78;100.00;50440.16;5034067;28;20042;-68
2021/11/30 02:43:49;;;;;;;0.20;0.20;;;;;;;-149.78;100.00;50447.97;5025458;28;20034;-68
2021/11/30 02:46:55;;;;;;;0.10;0.10;;;;;;;-149.78;100.00;50483.19;5024271;28;20430;-68
2021/11/30 02:49:23;;;;;;;0.52;0.30;;;;;;;-149.78;100.00;50436.25;5004103;28;20049;-68
2021/11/30 02:51:53;;;;;;;0.95;0.30;;;;;;;-149.78;100.00;50479.28;5023138;28;20042;-68
2021/11/30 02:54:22;;;;;;;0.22;0.22;;;;;;;-149.78;100.00;50473.41;5033988;28;20073;-68
2021/11/30 02:56:57;;;;;;;1.30;0.25;;;;;;;-149.78;100.00;50475.34;5030533;28;20037;-68
2021/11/30 02:59:27;;;;;;;0.55;0.30;;;;;;;-149.78;100.00;50453.84;5031246;28;20041;-68
2021/11/30 03:01:58;;;;;;;1.15;0.30;;;;;;;-149.78;100.00;50428.41;5032558;28;20037;-67
2021/11/30 03:04:25;;;;;;;1.58;0.30;;;;;;;-149.78;100.00;50483.19;5030282;28;20358;-68
2021/11/30 03:06:51;;;;;;;0.20;0.20;;;;;;;-149.78;100.00;50479.28;5033514;28;20030;-68
2021/11/30 03:09:17;;;;;;;0.30;0.30;;;;;;;-149.78;100.00;50418.63;5032236;28;20112;-67
2021/11/30 03:11:43;;;;;;;0.30;0.30;;;;;;;-149.78;100.00;50467.53;5029108;28;20180;-67
2021/11/30 03:14:09;;;;;;;0.20;0.20;;;;;;;-149.78;100.00;50412.78;5023570;28;20033;-68
2021/11/30 03:16:35;;;;;;;0.30;0.30;;;;;;;-149.78;100.00;50463.63;5030500;28;20030;-68
2021/11/30 03:19:02;;;;;;;0.88;0.40;;;;;;;-149.78;100.00;50420.59;5027869;28;20041;-68
2021/11/30 03:21:28;;;;;;;1.42;0.43;;;;;;;-149.78;100.00;50420.59;5030550;28;20098;-67
2021/11/30 03:23:53;;;;;;;0.30;0.30;;;;;;;-149.78;100.00;50447.97;5033406;28;20034;-67
2021/11/30 03:26:19;;;;;;;0.40;0.40;;;;;;;-149.78;100.00;50455.81;5030353;28;20036;-68
2021/11/30 03:28:45;;;;;;;1.98;0.50;;;;;;;-149.78;100.00;50483.19;5030037;28;20108;-67
2021/11/30 03:31:31;;;;;;;0.50;0.47;;;;;;;-149.78;100.00;50455.81;5028115;28;20091;-68
2021/11/30 03:33:59;;;;;;;0.30;0.30;;;;;;;-149.78;100.00;50438.19;5027635;28;20520;-67
2021/11/30 03:36:25;;;;;;;1.75;0.40;;;;;;;-149.78;100.00;50432.31;5033083;28;20053;-67
2021/11/30 03:38:50;;;;;;;0.93;0.50;;;;;;;-149.78;100.00;50428.41;5032816;28;20033;-67
2021/11/30 03:41:16;;;;;;;0.50;0.40;;;;;;;-149.78;100.00;50434.28;5033265;28;20045;-67
2021/11/30 03:43:42;;;;;;;1.02;0.30;;;;;;;-149.78;100.00;50434.28;5039508;28;20049;-67
2021/11/30 03:46:08;;;;;;;0.40;0.40;;;;;;;-149.78;100.00;50436.25;5023537;28;20045;-67
2021/11/30 03:48:33;;;;;;;0.75;0.52;;;;;;;-149.78;100.00;50440.16;5030823;28;20033;-67
2021/11/30 03:50:59;;;;;;;1.88;0.77;;;;;;;-149.78;100.00;50463.63;5031265;28;20091;-67
2021/11/30 03:53:25;;;;;;;0.50;0.40;;;;;;;-149.78;100.00;50424.50;5031368;28;20385;-68
2021/11/30 03:55:51;;;;;;;0.93;0.47;;;;;;;-149.78;100.00;50447.97;5024048;28;20413;-67
2021/11/30 03:58:17;;;;;;;1.23;0.60;;;;;;;-149.78;100.00;50463.63;5032922;28;20025;-67
2021/11/30 04:00:43;;;;;;;1.65;0.50;;;;;;;-149.78;100.00;50420.59;5032271;28;20502;-68
2021/11/30 04:03:08;;;;;;;0.38;0.38;;;;;;;-149.78;100.00;50479.28;5032619;28;20025;-68
2021/11/30 04:05:34;;;;;;;2.85;0.43;;;;;;;-149.78;100.00;50416.69;5031669;28;20025;-68
2021/11/30 04:08:00;;;;;;;0.43;0.40;;;;;;;-149.78;100.00;50451.88;5032818;28;20415;-67
2021/11/30 04:10:26;;;;;;;1.10;0.60;;;;;;;-149.78;100.00;50455.81;5032417;28;20124;-68
2021/11/30 04:12:52;;;;;;;0.70;0.52;;;;;;;-149.78;100.00;50451.88;5023596;28;20053;-67
2021/11/30 04:15:18;;;;;;;0.90;0.60;;;;;;;-149.78;100.00;50479.28;5028080;28;20382;-67
2021/11/30 04:17:44;;;;;;;0.60;0.50;;;;;;;-149.78;100.00;50475.34;5027372;28;20381;-68
2021/11/30 04:20:12;;;;;;;0.90;0.50;;;;;;;-149.78;100.00;50455.81;5032121;28;20071;-67
2021/11/30 04:22:38;;;;;;;1.58;0.70;;;;;;;-149.78;100.00;50438.19;5025078;28;20029;-67
2021/11/30 04:25:06;;;;;;;0.57;0.50;;;;;;;-149.78;100.00;50440.16;5030718;28;20048;-68
2021/11/30 04:27:32;;;;;;;0.95;0.70;;;;;;;-149.78;100.00;50459.72;5031380;28;20500;-67
2021/11/30 04:29:59;;;;;;;2.08;0.70;;;;;;;-149.78;100.00;50463.63;5025472;28;20045;-67
2021/11/30 04:32:25;;;;;;;1.15;0.80;;;;;;;-149.78;100.00;50395.16;5032156;28;20029;-67
2021/11/30 04:34:51;;;;;;;0.73;0.60;;;;;;;-149.78;100.00;50465.56;5031664;28;20435;-67
2021/11/30 04:37:18;;;;;;;1.23;0.60;;;;;;;-149.78;100.00;50457.75;5031695;28;20038;-67
2021/11/30 04:39:44;;;;;;;2.25;0.57;;;;;;;-149.78;100.00;50461.66;5033159;28;20033;-67
2021/11/30 04:42:10;;;;;;;0.90;0.60;;;;;;;-149.78;100.00;50455.81;5027038;28;20492;-67
2021/11/30 04:44:37;;;;;;;2.70;0.50;;;;;;;-149.78;100.00;50444.06;5029324;28;20029;-68
2021/11/30 04:47:09;;;;;;;1.35;0.73;;;;;;;-149.78;100.00;50455.81;5026203;28;20042;-67
2021/11/30 04:52:02;;;;;;;1.25;0.70;;;;;;;-149.78;100.00;50426.47;5030580;28;20036;-68
2021/11/30 04:54:28;;;;;;;0.93;0.47;;;;;;;-149.78;100.00;50485.13;5030114;28;20033;-67
2021/11/30 04:56:54;;;;;;;2.88;0.47;;;;;;;-149.78;100.00;50455.81;5030479;28;20059;-67
2021/11/30 04:59:21;;;;;;;1.23;0.60;;;;;;;-149.78;100.00;50477.31;5031399;28;20025;-67
2021/11/30 05:01:48;;;;;;;1.33;0.40;;;;;;;-149.78;100.00;50463.63;5031475;28;20500;-67
2021/11/30 05:04:14;;;;;;;0.43;0.43;;;;;;;-149.78;100.00;50424.50;5015879;28;20034;-67
2021/11/30 05:06:43;;;;;;;1.20;0.40;;;;;;;-149.78;100.00;50455.81;5027526;28;20022;-67
2021/11/30 05:09:09;;;;;;;1.10;0.50;;;;;;;-149.78;100.00;50461.66;5023673;28;20057;-67
2021/11/30 05:11:36;;;;;;;0.75;0.60;;;;;;;-149.78;100.00;50420.59;5024845;28;20040;-67
2021/11/30 05:14:02;;;;;;;0.50;0.50;;;;;;;-149.78;100.00;50444.06;5030636;28;20172;-67
2021/11/30 05:16:27;;;;;;;1.13;0.60;;;;;;;-149.78;100.00;50447.97;5030199;28;20033;-67
2021/11/30 05:18:53;;;;;;;2.97;1.33;;;;;;;-149.78;100.00;50449.94;5029819;28;20515;-67
2021/11/30 05:21:19;;;;;;;0.95;0.50;;;;;;;-149.78;100.00;50463.63;5028258;28;20476;-67
2021/11/30 05:23:45;;;;;;;2.10;0.70;;;;;;;-149.78;100.00;50434.28;5023687;28;20037;-67
2021/11/30 05:26:11;;;;;;;0.57;0.50;;;;;;;-149.78;100.00;50451.88;5024717;28;20025;-67
2021/11/30 05:28:40;;;;;;;0.68;0.40;;;;;;;-149.78;100.00;50463.63;5030822;28;21396;-67
2021/11/30 05:31:07;;;;;;;0.75;0.50;;;;;;;-149.78;100.00;50451.88;5026300;28;20033;-67
2021/11/30 05:33:34;;;;;;;1.42;0.50;;;;;;;-149.78;100.00;50479.28;5030577;28;20049;-67
2021/11/30 05:36:01;;;;;;;0.95;0.60;;;;;;;-149.78;100.00;50451.88;5023621;28;20191;-67
2021/11/30 05:38:29;;;;;;;2.15;0.70;;;;;;;-149.78;100.00;50467.53;5038407;28;20459;-67
2021/11/30 05:40:55;;;;;;;1.05;0.68;;;;;;;-149.78;100.00;50428.41;5025605;28;20103;-67
2021/11/30 05:43:21;;;;;;;1.13;0.75;;;;;;;-149.78;100.00;50491.00;5022232;28;20125;-67
2021/11/30 05:45:47;;;;;;;2.17;0.70;;;;;;;-149.78;100.00;50440.16;5019155;28;20130;-67
2021/11/30 05:48:13;;;;;;;0.80;0.60;;;;;;;-149.78;100.00;50479.28;5014913;28;20037;-67
2021/11/30 05:50:40;;;;;;;1.08;0.70;;;;;;;-149.78;100.00;50428.41;5021064;28;20034;-67
2021/11/30 05:53:06;;;;;;;4.50;1.23;;;;;;;-149.78;100.00;50463.63;5024993;28;20037;-67
2021/11/30 05:55:32;;;;;;;2.67;1.25;;;;;;;-149.78;100.00;50440.16;5026770;28;20064;-67
2021/11/30 05:57:58;;;;;;;2.70;0.95;;;;;;;-149.78;100.00;50467.53;5031011;28;20127;-68
2021/11/30 06:00:27;;;;;;;1.50;1.00;;;;;;;-149.78;100.00;50455.81;5029757;28;20354;-68
2021/11/30 06:05:21;;;;;;;2.05;1.00;;;;;;;-149.78;100.00;50432.31;5032111;28;20034;-67
2021/11/30 06:07:47;;;;;;;4.03;1.00;;;;;;;-149.78;100.00;50467.53;5025591;28;20026;-68
2021/11/30 06:10:13;;;;;;;1.42;0.80;;;;;;;-149.78;100.00;50432.31;5030257;28;20045;-68
2021/11/30 06:12:38;;;;;;;0.80;0.80;;;;;;;-149.78;100.00;50469.50;5033423;28;20025;-68
2021/11/30 06:15:04;;;;;;;1.35;0.85;;;;;;;-149.78;100.00;50487.09;5035441;28;20424;-67
2021/11/30 06:17:30;;;;;;;3.33;0.90;;;;;;;-149.78;100.00;50432.31;5032432;28;20065;-67
2021/11/30 06:19:55;;;;;;;1.85;0.82;;;;;;;-149.78;100.00;50453.84;5031372;28;20128;-67
2021/11/30 06:22:21;;;;;;;3.33;0.93;;;;;;;-149.78;100.00;50477.31;5024445;28;20120;-67
2021/11/30 06:24:46;;;;;;;0.80;0.70;;;;;;;-149.78;100.00;50453.84;5028156;28;20038;-67
2021/11/30 06:27:12;;;;;;;2.58;0.90;;;;;;;-149.78;100.00;50455.81;5030822;28;20131;-67
2021/11/30 06:29:38;;;;;;;3.70;1.00;;;;;;;-149.78;100.00;50463.63;5031862;28;20029;-67
2021/11/30 06:32:04;;;;;;;3.75;0.80;;;;;;;-149.78;100.00;50455.81;5039674;28;20063;-67
2021/11/30 06:34:29;;;;;;;2.38;0.95;;;;;;;-149.78;100.00;50447.97;5032194;28;20049;-67
2021/11/30 06:36:55;;;;;;;3.65;1.10;;;;;;;-149.78;100.00;50467.53;5035422;28;20057;-67
2021/11/30 06:39:21;;;;;;;1.85;0.80;;;;;;;-149.78;100.00;50436.25;5031994;28;20124;-67
2021/11/30 06:41:47;;;;;;;1.38;0.90;;;;;;;-149.78;100.00;50440.16;5033783;28;20487;-68
2021/11/30 06:44:13;;;;;;;0.93;0.82;;;;;;;-149.78;100.00;50432.31;5033757;28;20063;-67
2021/11/30 06:46:38;;;;;;;2.13;0.90;;;;;;;-149.78;100.00;50447.97;5032252;28;20508;-67
2021/11/30 06:49:04;;;;;;;3.13;0.80;;;;;;;-149.78;100.00;50477.31;5034319;28;20457;-67
2021/11/30 06:51:30;;;;;;;3.50;0.85;;;;;;;-149.78;100.00;50453.84;5031763;28;20477;-67
2021/11/30 06:53:57;;;;;;;2.17;0.77;;;;;;;-149.78;100.00;50471.44;5033686;28;20033;-67
2021/11/30 06:56:23;;;;;;;3.97;0.80;;;;;;;-149.78;100.00;50432.31;5023774;28;20349;-67
2021/11/30 06:58:49;;;;;;;0.90;0.60;;;;;;;-149.78;100.00;50432.31;5028927;28;20104;-67
2021/11/30 07:01:15;;;;;;;1.42;0.65;;;;;;;-149.78;100.00;50475.34;5028185;28;20041;-67
2021/11/30 07:03:43;;;;;;;0.55;0.55;;;;;;;-149.78;100.00;50424.50;5033424;28;20877;-67
2021/11/30 07:06:27;;;;;;;1.35;0.60;;;;;;;-149.78;100.00;50455.81;5031820;28;20033;-67
2021/11/30 07:08:57;;;;;;;0.85;0.60;;;;;;;-149.78;100.00;50459.72;5030498;28;20057;-67
2021/11/30 07:12:10;;;;;;;1.08;0.82;;;;;;;-149.78;100.00;50463.63;5032040;28;20487;-67
2021/11/30 07:14:08;;;;;;;0.60;0.57;;;;;;;-149.78;100.00;50471.44;5015595;28;20104;-67
2021/11/30 07:16:34;;;;;;;1.20;0.88;;;;;;;-149.78;100.00;50412.78;5019074;28;20038;-68
2021/11/30 07:19:00;;;;;;;3.28;0.95;;;;;;;-149.78;100.00;50428.41;5021754;28;20041;-67
2021/11/30 07:21:27;;;;;;;2.45;0.98;;;;;;;-149.78;100.00;50436.25;5022481;28;20421;-67
2021/11/30 07:23:55;;;;;;;1.70;0.68;;;;;;;-149.78;100.00;50471.44;5016134;28;20033;-68
2021/11/30 07:26:21;;;;;;;2.03;0.70;;;;;;;-149.78;100.00;50436.25;5022187;28;20036;-68
2021/11/30 07:28:47;;;;;;;1.13;0.77;;;;;;;-149.78;100.00;50463.63;5019201;28;20041;-67
2021/11/30 07:31:14;;;;;;;2.75;0.80;;;;;;;-149.78;100.00;50471.44;5020560;28;20033;-68
2021/11/30 07:33:44;;;;;;;1.75;0.85;;;;;;;-149.78;100.00;50487.09;5018021;28;20408;-68
2021/11/30 07:36:10;;;;;;;1.48;0.90;;;;;;;-149.78;100.00;50426.47;5020322;28;20500;-69
2021/11/30 07:38:38;;;;;;;1.48;0.80;;;;;;;-149.78;100.00;50440.16;5022592;28;20037;-69
2021/11/30 07:41:05;;;;;;;2.40;0.85;;;;;;;-149.78;100.00;50483.19;5021663;28;20112;-69
2021/11/30 07:43:31;;;;;;;1.95;1.20;;;;;;;-149.78;100.00;50444.06;5024734;28;20533;-69
2021/11/30 07:45:57;;;;;;;1.30;1.00;;;;;;;-149.78;100.00;50463.63;5022293;28;20444;-69
2021/11/30 07:48:23;;;;;;;1.45;1.00;;;;;;;-149.78;100.00;50471.44;5016734;28;20419;-69
2021/11/30 07:50:50;;;;;;;2.50;0.90;;;;;;;-149.78;100.00;50455.81;5019334;28;20034;-69
2021/11/30 07:53:16;;;;;;;1.80;1.02;;;;;;;-149.78;100.00;50467.53;5025176;28;20504;-70
2021/11/30 07:55:42;;;;;;;1.42;1.10;;;;;;;-149.78;100.00;50461.66;5028837;28;20587;-69
2021/11/30 07:58:08;;;;;;;3.70;1.10;;;;;;;-149.78;100.00;50469.50;5031682;28;20037;-69
2021/11/30 08:00:35;;;;;;;3.95;1.27;;;;;;;-149.78;100.00;50471.44;5029333;28;20495;-68
2021/11/30 08:03:00;;;;;;;1.98;1.20;;;;;;;-149.78;100.00;50436.25;5017900;28;20034;-69
2021/11/30 08:05:27;;;;;;;2.08;1.27;;;;;;;-149.78;100.00;50447.97;5019617;28;20030;-68
2021/11/30 08:07:52;;;;;;;2.78;1.30;;;;;;;-149.78;100.00;50467.53;5022933;28;20083;-67
2021/11/30 08:10:20;;;;;;;1.20;1.02;;;;;;;-149.78;100.00;50377.56;5033194;28;20034;-68
2021/11/30 08:12:46;;;;;;;1.90;1.02;;;;;;;-149.78;100.00;50455.81;5033196;28;20037;-67
2021/11/30 08:15:14;;;;;;;1.52;1.00;;;;;;;-149.78;100.00;50455.81;5028839;28;20102;-66
2021/11/30 08:17:40;;;;;;;1.25;0.80;;;;;;;-149.78;100.00;50467.53;5030182;28;20029;-67
2021/11/30 08:20:08;;;;;;;1.20;0.88;;;;;;;-149.78;100.00;50444.06;5032892;28;20508;-68
2021/11/30 08:22:35;;;;;;;1.65;0.77;;;;;;;-149.78;100.00;50436.25;5022950;28;20489;-67
2021/11/30 08:25:02;;;;;;;1.38;0.80;;;;;;;-149.78;100.00;50412.78;5018885;28;20044;-68
2021/11/30 08:27:27;;;;;;;0.80;0.80;;;;;;;-149.78;100.00;50430.38;5021257;28;20079;-69
2021/11/30 08:29:53;;;;;;;1.80;0.80;;;;;;;-149.78;100.00;50447.97;5015089;28;20045;-67
2021/11/30 08:32:22;;;;;;;2.38;1.00;;;;;;;-149.78;100.00;50404.94;5019892;28;20029;-67
2021/11/30 08:34:52;;;;;;;2.00;0.90;;;;;;;-149.78;100.00;50422.56;5025445;28;20049;-69
2021/11/30 08:37:19;;;;;;;1.45;0.80;;;;;;;-149.78;100.00;50467.53;5022511;28;20037;-68
2021/11/30 08:39:48;;;;;;;0.90;0.50;;;;;;;-149.78;100.00;50426.47;5023255;28;20042;-68
2021/11/30 08:42:14;;;;;;;0.90;0.70;;;;;;;-149.78;100.00;50467.53;5017477;28;20044;-69
2021/11/30 08:44:40;;;;;;;0.70;0.50;;;;;;;-149.78;100.00;50475.34;5020859;28;20079;-69
2021/11/30 08:47:10;;;;;;;2.10;0.63;;;;;;;-149.78;100.00;50412.78;5027022;28;20022;-69
2021/11/30 08:49:35;;;;;;;0.60;0.50;;;;;;;-149.78;100.00;50447.97;5029546;28;20053;-69
2021/11/30 08:52:04;;;;;;;0.43;0.43;;;;;;;-149.78;100.00;50463.63;5031789;28;20488;-69
2021/11/30 08:54:31;;;;;;;1.13;0.45;;;;;;;-149.78;100.00;50467.53;5025101;28;20184;-69
2021/11/30 08:56:58;;;;;;;1.63;0.63;;;;;;;-149.78;100.00;50416.69;5018833;28;20036;-69
2021/11/30 08:59:24;;;;;;;3.33;0.52;;;;;;;-149.78;100.00;50447.97;5024700;28;20059;-69
2021/11/30 09:01:50;;;;;;;1.13;0.70;;;;;;;-149.78;100.00;50418.63;5032403;28;20033;-69
2021/11/30 09:04:16;;;;;;;0.50;0.50;;;;;;;-149.78;100.00;50420.59;5025623;28;20033;-69
2021/11/30 09:06:42;;;;;;;0.57;0.47;;;;;;;-149.78;100.00;50408.84;5027812;28;20108;-69
2021/11/30 09:09:09;;;;;;;1.45;0.57;;;;;;;-149.78;100.00;50432.31;5028658;28;20067;-69
2021/11/30 09:11:36;;;;;;;0.40;0.40;;;;;;;-149.78;100.00;50473.41;5021506;28;20362;-68
2021/11/30 09:14:03;;;;;;;1.15;0.77;;;;;;;-149.78;100.00;50412.78;5019277;28;20041;-68
2021/11/30 09:16:29;;;;;;;1.60;1.02;;;;;;;-149.78;100.00;50453.84;5018811;28;20065;-69
2021/11/30 09:18:56;;;;;;;1.40;1.25;;;;;;;-149.78;100.00;50447.97;5019953;28;20388;-69
2021/11/30 09:21:22;;;;;;;2.30;1.90;;;;;;;-149.78;100.00;50418.63;5022278;28;20029;-68
2021/11/30 09:23:48;;;;;;;2.50;1.75;;;;;;;-149.78;100.00;50412.78;5025842;28;20037;-69
2021/11/30 09:26:14;;;;;;;3.30;2.10;;;;;;;-149.78;100.00;50436.25;5027608;28;20025;-69
2021/11/30 09:28:41;;;;;;;4.18;2.08;;;;;;;-149.78;100.00;50475.34;5021757;28;20030;-69
2021/11/30 09:31:07;;;;;;;4.07;2.03;;;;;;;-149.78;100.00;50451.88;5028444;28;20033;-69
2021/11/30 09:33:34;;;;;;;2.88;1.90;;;;;;;-149.78;100.00;50471.44;5029536;28;20037;-69
2021/11/30 09:36:00;;;;;;;2.97;1.85;;;;;;;-149.78;100.00;50412.78;5028182;28;20025;-69
2021/11/30 09:38:26;;;;;;;1.55;1.20;;;;;;;-149.78;100.00;50453.84;5020629;28;20072;-68
2021/11/30 09:40:57;;;;;;;1.63;1.30;;;;;;;-149.78;100.00;50412.78;5026090;28;20112;-68
2021/11/30 09:43:25;;;;;;;1.40;1.20;;;;;;;-149.78;100.00;50432.31;5028892;28;20037;-67
2021/11/30 09:45:51;;;;;;;1.42;1.27;;;;;;;-149.78;100.00;50440.16;5031108;28;20079;-67
2021/11/30 09:48:17;;;;;;;2.05;1.20;;;;;;;-149.78;100.00;50424.50;5031086;28;20029;-68
2021/11/30 09:50:45;;;;;;;1.27;1.08;;;;;;;-149.78;100.00;50424.50;5027191;28;20416;-68
2021/11/30 09:53:12;;;;;;;0.73;0.70;;;;;;;-149.78;100.00;50401.03;5029796;28;20037;-68
2021/11/30 09:55:39;;;;;;;0.80;0.65;;;;;;;-149.78;100.00;50416.69;5020690;28;20052;-68
2021/11/30 09:58:05;;;;;;;0.40;0.40;;;;;;;-149.78;100.00;50453.84;5034438;28;20026;-68
2021/11/30 10:00:34;;;;;;;0.40;0.40;;;;;;;-149.78;100.00;50432.31;5031698;28;20118;-68
2021/11/30 10:03:00;;;;;;;1.08;0.50;;;;;;;-149.78;100.00;50393.22;5033653;28;20029;-68
2021/11/30 10:05:27;;;;;;;0.73;0.47;;;;;;;-149.78;100.00;50424.50;5034860;28;20029;-68
2021/11/30 10:07:55;;;;;;;1.00;0.75;;;;;;;-149.78;100.00;50424.50;5034207;28;20065;-67
2021/11/30 10:10:28;;;;;;;0.80;0.70;;;;;;;-149.78;100.00;50395.16;5035024;28;20029;-68
2021/11/30 10:12:59;;;;;;;0.57;0.57;;;;;;;-149.78;100.00;50430.38;5029643;28;20029;-68
2021/11/30 10:15:27;;;;;;;0.60;0.60;;;;;;;-149.78;100.00;50471.44;5035636;28;20039;-67
2021/11/30 10:18:23;;;;;;;0.68;0.60;;;;;;;-149.78;100.00;50440.16;5026923;28;20049;-67
2021/11/30 10:20:53;;;;;;;1.20;0.75;;;;;;;-149.78;100.00;50453.84;5031023;28;20033;-67
2021/11/30 10:23:22;;;;;;;1.27;0.77;;;;;;;-149.78;100.00;50406.91;5032211;28;20026;-67
2021/11/30 10:25:49;;;;;;;2.63;1.00;;;;;;;-149.78;100.00;50453.84;5026898;28;20102;-67
2021/11/30 10:28:23;;;;;;;1.48;0.80;;;;;;;-149.78;100.00;50451.88;5028918;28;20040;-67
2021/11/30 10:30:52;;;;;;;1.67;0.85;;;;;;;-149.78;100.00;50424.50;5023950;28;20111;-68
2021/11/30 10:33:25;;;;;;;1.63;0.90;;;;;;;-149.78;100.00;50420.59;5030885;28;20503;-68
2021/11/30 10:35:59;;;;;;;0.70;0.60;;;;;;;-149.78;100.00;50416.69;5034700;28;20539;-67
2021/11/30 10:38:37;;;;;;;0.95;0.73;;;;;;;-149.78;100.00;50416.69;5032268;28;20029;-68
2021/11/30 10:41:18;;;;;;;0.80;0.68;;;;;;;-149.78;100.00;50424.50;5034783;28;20477;-68
2021/11/30 10:43:50;;;;;;;1.50;0.85;;;;;;;-149.78;100.00;50416.69;5031287;28;20421;-67
2021/11/30 10:46:28;;;;;;;1.45;0.93;;;;;;;-149.78;100.00;50416.69;5022203;28;20411;-67
2021/11/30 10:48:55;;;;;;;2.53;1.70;;;;;;;-149.78;100.00;50428.41;5025113;28;20401;-67
2021/11/30 10:51:21;;;;;;;1.65;1.38;;;;;;;-149.78;100.00;50440.16;5028925;28;20658;-67
2021/11/30 10:53:50;;;;;;;2.20;1.70;;;;;;;-149.78;100.00;50487.09;5020485;28;20044;-67
2021/11/30 10:56:20;;;;;;;3.83;2.00;;;;;;;-149.78;100.00;50410.81;5022787;28;20037;-67
2021/11/30 10:58:46;;;;;;;2.67;1.95;;;;;;;-149.78;100.00;50430.38;5021087;28;20044;-67
2021/11/30 11:01:20;;;;;;;2.70;1.40;;;;;;;-149.78;100.00;50412.78;5032569;28;20055;-68
2021/11/30 11:04:01;;;;;;;1.30;1.20;;;;;;;-149.78;100.00;50428.41;5026518;28;20488;-68
2021/11/30 11:06:30;;;;;;;1.92;1.20;;;;;;;-149.78;100.00;50440.16;5029427;28;20044;-68
2021/11/30 11:09:02;;;;;;;1.67;1.20;;;;;;;-149.78;100.00;50455.81;5029826;28;20408;-67
2021/11/30 11:11:40;;;;;;;1.27;1.10;;;;;;;-149.78;100.00;50440.16;5030417;28;20029;-67
2021/11/30 11:14:24;;;;;;;3.15;1.30;;;;;;;-149.78;100.00;50446.03;5032331;28;20480;-67
2021/11/30 11:17:00;;;;;;;1.35;1.13;;;;;;;-149.78;100.00;50451.88;5034812;28;20041;-67
2021/11/30 11:19:43;;;;;;;0.88;0.85;;;;;;;-149.78;100.00;50471.44;5032696;28;20037;-68
2021/11/30 11:22:18;;;;;;;1.20;1.08;;;;;;;-149.78;100.00;50459.72;5032714;28;20116;-68